No particular awareness of the weather is required.    There are no Weather-warnings


Meteo18 Weather Cam more information Meteo18 Weather Cam


Thunder radar more information blitzortung!


Rain radar more information rain snow radar


Visit our other weather sites:

Template documentation
and downloads

And another site



Weather Underground History page Text

Daily Summary for October 5, 2017 Units:  English    Metric   Both
« Previous Day
Next Day »
Daily Weekly Monthly Yearly Custom
  High: Low: Average:
Temperature: TemperatureC °F 4.6 °F 12.1 °F
Dew Point: DewpointC °F 4.0 °F 9.3 °F
Humidity: Humidity % 54 % 84 %
Wind Speed: WindSpeedKMH mph 0.0 mph 5.5 mph
Wind Gust: WindSpeedGustKMH mph - -
Wind:- - West
Pressure: PressurehPa in 1020.5 in -
Precipitation: 0.5 in    
Historical Graphs
 
 
Tabular Data for October 5, 2017
Time Temperature Dew Point Pressure Wind Wind Speed Wind Gust Humidity Rainfall Rate (Hourly)
TemperatureC °F DewpointC °F PressurehPa in Calm     Humidity % HourlyPrecipMM in
00:02 8.7 °F 7.8 °F 1025.3 in Calm   1.6 mph 94 % 0.0 in
00:07 8.8 °F 7.9 °F 1025.3 in Calm   1.6 mph 94 % 0.0 in
00:12 8.8 °F 7.9 °F 1025.3 in Calm   1.6 mph 94 % 0.0 in
00:17 8.7 °F 7.8 °F 1025.3 in Calm   1.6 mph 94 % 0.0 in
00:22 8.7 °F 7.8 °F 1025.3 in Calm   1.6 mph 94 % 0.0 in
00:32 8.7 °F 7.8 °F 1025.3 in Calm   1.6 mph 94 % 0.0 in
00:42 8.6 °F 7.7 °F 1025.3 in Calm     94 % 0.0 in
00:47 8.6 °F 7.7 °F 1025.3 in Calm     94 % 0.0 in
00:52 8.7 °F 7.8 °F 1025.3 in Calm     94 % 0.0 in
00:57 8.6 °F 7.7 °F 1025.3 in Calm     94 % 0.0 in
01:07 8.4 °F 7.3 °F 1024.9 in Calm     93 % 0.0 in
01:12 8.3 °F 7.2 °F 1025.3 in Calm     93 % 0.0 in
01:22 8.2 °F 7.3 °F 1024.9 in Calm     94 % 0.0 in
01:27 8.1 °F 7.2 °F 1024.9 in Calm     94 % 0.0 in
01:32 7.9 °F 7.0 °F 1024.9 in Calm     94 % 0.0 in
01:37 7.9 °F 7.0 °F 1024.9 in Calm     94 % 0.0 in
01:42 8.1 °F 7.3 °F 1024.9 in Calm     95 % 0.0 in
01:52 8.3 °F 7.5 °F 1024.9 in Calm     95 % 0.0 in
01:57 8.1 °F 7.2 °F 1024.9 in Calm     94 % 0.0 in
02:02 7.9 °F 7.0 °F 1024.9 in Calm     94 % 0.0 in
02:07 7.9 °F 7.1 °F 1024.9 in Calm     95 % 0.0 in
02:12 7.8 °F 6.9 °F 1024.9 in Calm     94 % 0.0 in
02:17 7.6 °F 6.7 °F 1024.9 in Calm     94 % 0.0 in
02:22 7.6 °F 6.9 °F 1024.9 in Calm     95 % 0.0 in
02:32 7.6 °F 6.9 °F 1024.9 in Calm     95 % 0.0 in
02:37 7.4 °F 6.7 °F 1024.9 in Calm     95 % 0.0 in
02:42 7.2 °F 6.5 °F 1024.9 in Calm     95 % 0.0 in
02:47 7.1 °F 6.4 °F 1024.6 in Calm     95 % 0.0 in
02:52 7.0 °F 6.3 °F 1024.6 in Calm     95 % 0.0 in
02:57 7.1 °F 6.5 °F 1024.9 in Calm     96 % 0.0 in
03:02 7.0 °F 6.3 °F 1024.6 in Calm     95 % 0.0 in
03:07 6.9 °F 6.3 °F 1024.6 in Calm     96 % 0.0 in
03:12 6.9 °F 6.3 °F 1024.6 in Calm     96 % 0.0 in
03:17 6.9 °F 6.2 °F 1024.6 in Calm     95 % 0.0 in
03:22 6.7 °F 6.0 °F 1024.3 in Calm     95 % 0.0 in
03:27 6.6 °F 5.9 °F 1024.3 in Calm     95 % 0.0 in
03:32 6.6 °F 6.0 °F 1024.3 in Calm     96 % 0.3 in
03:37 6.5 °F 5.9 °F 1024.3 in Calm     96 % 0.3 in
03:42 6.5 °F 5.9 °F 1024.3 in Calm     96 % 0.3 in
03:47 6.5 °F 5.9 °F 1024.3 in Calm     96 % 0.3 in
03:52 6.6 °F 6.0 °F 1023.9 in Calm     96 % 0.3 in
03:57 6.6 °F 6.0 °F 1023.9 in Calm     96 % 0.3 in
04:02 6.9 °F 6.5 °F 1023.9 in Calm     97 % 0.3 in
04:07 6.7 °F 6.1 °F 1023.9 in Calm     96 % 0.3 in
04:12 6.7 °F 6.1 °F 1023.6 in Calm     96 % 0.3 in
04:17 6.7 °F 6.1 °F 1023.6 in Calm     96 % 0.3 in
04:22 6.7 °F 6.1 °F 1023.6 in Calm     96 % 0.3 in
04:32 6.4 °F 5.8 °F 1023.6 in Calm     96 % 0.0 in
04:37 6.4 °F 5.8 °F 1023.6 in Calm     96 % 0.0 in
04:42 6.1 °F 5.4 °F 1023.6 in Calm     95 % 0.0 in
04:47 5.9 °F 5.2 °F 1023.6 in Calm     95 % 0.0 in
04:52 5.8 °F 5.2 °F 1023.6 in Calm     96 % 0.0 in
05:02 5.9 °F 5.3 °F 1023.2 in Calm     96 % 0.0 in
05:22 6.6 °F 6.2 °F 1023.6 in Calm     97 % 0.0 in
05:27 6.6 °F 6.2 °F 1023.6 in Calm     97 % 0.0 in
05:32 6.9 °F 6.5 °F 1023.2 in Calm     97 % 0.0 in
05:37 6.8 °F 6.4 °F 1023.2 in Calm     97 % 0.0 in
05:42 6.8 °F 6.4 °F 1023.2 in Calm     97 % 0.0 in
05:47 6.9 °F 6.5 °F 1023.2 in Calm     97 % 0.0 in
05:52 6.8 °F 6.4 °F 1023.2 in Calm     97 % 0.0 in
05:57 6.5 °F 5.9 °F 1023.2 in Calm     96 % 0.0 in
06:02 6.4 °F 5.8 °F 1023.2 in Calm     96 % 0.0 in
06:12 6.2 °F 5.6 °F 1023.2 in Calm     96 % 0.0 in
06:17 6.1 °F 5.7 °F 1023.2 in Calm     97 % 0.0 in
06:22 6.1 °F 5.7 °F 1023.2 in Calm     97 % 0.0 in
06:32 5.7 °F 5.1 °F 1023.2 in Calm     96 % 0.0 in
06:42 5.3 °F 4.7 °F 1023.2 in Calm     96 % 0.0 in
06:52 5.2 °F 4.6 °F 1023.2 in Calm     96 % 0.0 in
07:02 4.9 °F 4.3 °F 1023.2 in Calm     96 % 0.0 in
07:07 4.7 °F 4.1 °F 1023.2 in Calm     96 % 0.0 in
07:12 4.6 °F 4.0 °F 1023.2 in Calm     96 % 0.0 in
07:17 4.7 °F 4.3 °F 1023.2 in Calm     97 % 0.0 in
07:22 4.6 °F 4.2 °F 1023.2 in Calm     97 % 0.0 in
07:32 4.7 °F 4.3 °F 1023.2 in Calm     97 % 0.0 in
07:37 4.8 °F 4.4 °F 1023.2 in Calm     97 % 0.0 in
07:42 4.7 °F 4.3 °F 1022.9 in Calm     97 % 0.0 in
07:52 4.7 °F 4.3 °F 1022.9 in Calm     97 % 0.0 in
07:57 4.6 °F 4.2 °F 1022.9 in Calm   1.6 mph 97 % 0.0 in
08:02 4.6 °F 4.2 °F 1022.9 in Calm   1.6 mph 97 % 0.0 in
08:12 5.2 °F 4.8 °F 1022.9 in South 1.6 mph 3.2 mph 97 % 0.0 in
08:17 5.8 °F 5.4 °F 1022.9 in SW 3.2 mph 4.8 mph 97 % 0.0 in
08:22 6.3 °F 5.9 °F 1022.9 in SW 1.6 mph 6.4 mph 97 % 0.0 in
08:32 6.8 °F 6.5 °F 1022.9 in SW 1.6 mph 8.0 mph 98 % 0.0 in
08:42 6.7 °F 6.3 °F 1022.9 in Calm   8.0 mph 97 % 0.0 in
08:47 6.2 °F 5.8 °F 1022.9 in Calm   6.4 mph 97 % 0.0 in
08:52 6.1 °F 5.7 °F 1022.9 in Calm   1.6 mph 97 % 0.0 in
08:57 5.8 °F 5.4 °F 1022.9 in Calm   1.6 mph 97 % 0.0 in
09:02 6.0 °F 5.6 °F 1022.9 in Calm   1.6 mph 97 % 0.0 in
09:12 6.6 °F 6.2 °F 1022.9 in Calm   1.6 mph 97 % 0.0 in
09:17 6.9 °F 6.5 °F 1022.9 in South 3.2 mph 3.2 mph 97 % 0.0 in
09:22 7.2 °F 6.8 °F 1022.9 in SSE 3.2 mph 4.8 mph 97 % 0.0 in
09:32 7.6 °F 7.3 °F 1022.9 in SSW 3.2 mph 6.4 mph 98 % 0.0 in
09:42 7.9 °F 7.6 °F 1022.9 in South 3.2 mph 9.7 mph 98 % 0.0 in
09:47 8.1 °F 7.8 °F 1022.9 in SSE 4.8 mph 9.7 mph 98 % 0.0 in
09:52 8.4 °F 8.1 °F 1022.9 in SSW 3.2 mph 9.7 mph 98 % 0.0 in
09:57 8.8 °F 8.5 °F 1022.9 in South 1.6 mph 8.0 mph 98 % 0.0 in
10:02 9.3 °F 9.0 °F 1022.9 in SSE 1.6 mph 8.0 mph 98 % 0.0 in
10:07 9.6 °F 9.3 °F 1022.9 in WSW 1.6 mph 8.0 mph 98 % 0.0 in
10:17 9.9 °F 9.4 °F 1023.2 in SSW 6.4 mph 8.0 mph 97 % 0.0 in
10:22 10.1 °F 9.6 °F 1023.2 in South 4.8 mph 9.7 mph 97 % 0.0 in
10:32 10.4 °F 9.9 °F 1022.9 in SW 4.8 mph 9.7 mph 97 % 0.0 in
10:37 10.6 °F 10.1 °F 1022.9 in SW 6.4 mph 9.7 mph 97 % 0.0 in
10:42 10.6 °F 10.0 °F 1022.9 in SW 3.2 mph 9.7 mph 96 % 0.0 in
10:47 10.8 °F 10.3 °F 1022.9 in West 3.2 mph 9.7 mph 97 % 0.3 in
10:52 11.1 °F 10.6 °F 1022.9 in SW 9.7 mph 9.7 mph 97 % 0.3 in
10:57 11.2 °F 10.4 °F 1023.2 in WSW 4.8 mph 12.9 mph 95 % 0.3 in
11:02 11.2 °F 10.3 °F 1023.2 in SW 6.4 mph 12.9 mph 94 % 0.3 in
11:17 11.8 °F 10.5 °F 1022.9 in SW 3.2 mph 16.1 mph 92 % 0.3 in
11:22 11.9 °F 10.3 °F 1023.2 in SSE 8.0 mph 19.3 mph 90 % 0.3 in
11:27 12.1 °F 10.5 °F 1023.2 in WSW 9.7 mph 19.3 mph 90 % 0.3 in
11:32 12.3 °F 10.5 °F 1022.9 in WSW 6.4 mph 19.3 mph 89 % 0.3 in
11:42 12.6 °F 10.7 °F 1022.9 in SW 12.9 mph 14.5 mph 88 % 0.0 in
11:47 12.6 °F 10.5 °F 1022.9 in SW 8.0 mph 14.5 mph 87 % 0.0 in
11:52 12.9 °F 10.8 °F 1022.9 in SW 8.0 mph 14.5 mph 87 % 0.0 in
12:02 13.3 °F 11.0 °F 1022.9 in SW 11.3 mph 14.5 mph 86 % 0.0 in
12:12 13.9 °F 10.9 °F 1022.9 in SW 9.7 mph 19.3 mph 82 % 0.0 in
12:17 14.1 °F 11.4 °F 1022.9 in WSW 11.3 mph 19.3 mph 84 % 0.0 in
12:27 14.3 °F 11.1 °F 1022.6 in SW 8.0 mph 20.9 mph 81 % 0.0 in
12:32 14.8 °F 11.8 °F 1022.2 in SW 16.1 mph 20.9 mph 82 % 0.0 in
12:42 15.3 °F 11.3 °F 1022.6 in WSW 14.5 mph 24.1 mph 77 % 0.0 in
12:47 15.3 °F 11.1 °F 1022.6 in SW 11.3 mph 24.1 mph 76 % 0.0 in
12:52 15.6 °F 11.4 °F 1022.6 in SW 6.4 mph 20.9 mph 76 % 0.0 in
13:02 16.0 °F 11.2 °F 1022.9 in West 9.7 mph 20.9 mph 73 % 0.0 in
13:07 16.2 °F 10.9 °F 1022.9 in WSW 12.9 mph 19.3 mph 71 % 0.0 in
13:12 16.4 °F 11.3 °F 1022.9 in WNW 14.5 mph 24.1 mph 72 % 0.0 in
13:17 16.6 °F 11.3 °F 1022.9 in WSW 20.9 mph 24.1 mph 71 % 0.0 in
13:22 16.6 °F 10.9 °F 1022.6 in WSW 6.4 mph 22.5 mph 69 % 0.0 in
13:27 16.8 °F 11.1 °F 1022.6 in WSW 4.8 mph 22.5 mph 69 % 0.0 in
13:32 16.9 °F 10.7 °F 1022.2 in SW 1.6 mph 22.5 mph 67 % 0.0 in
13:37 17.1 °F 10.7 °F 1022.2 in WSW 6.4 mph 22.5 mph 66 % 0.0 in
13:42 17.4 °F 11.2 °F 1022.2 in SW 16.1 mph 20.9 mph 67 % 0.0 in
13:47 17.5 °F 11.1 °F 1022.2 in SSW 11.3 mph 20.9 mph 66 % 0.0 in
13:52 17.8 °F 11.1 °F 1022.2 in SW 3.2 mph 20.9 mph 65 % 0.0 in
13:57 17.9 °F 10.0 °F 1022.2 in WSW 11.3 mph 20.9 mph 60 % 0.0 in
14:02 17.8 °F 10.2 °F 1022.2 in West 12.9 mph 17.7 mph 61 % 0.0 in
14:07 17.8 °F 9.9 °F 1022.2 in SW 9.7 mph 22.5 mph 60 % 0.0 in
14:12 18.0 °F 10.4 °F 1021.9 in WSW 12.9 mph 22.5 mph 61 % 0.0 in
14:17 18.2 °F 10.3 °F 1021.9 in West 8.0 mph 22.5 mph 60 % 0.0 in
14:22 18.1 °F 9.7 °F 1021.9 in West 16.1 mph 19.3 mph 58 % 0.0 in
14:27 17.9 °F 9.5 °F 1021.6 in WSW 11.3 mph 22.5 mph 58 % 0.0 in
14:32 18.2 °F 10.3 °F 1021.6 in WSW 14.5 mph 22.5 mph 60 % 0.0 in
14:37 18.3 °F 9.9 °F 1021.6 in SW 8.0 mph 22.5 mph 58 % 0.0 in
14:42 18.3 °F 9.6 °F 1021.6 in WSW 9.7 mph 17.7 mph 57 % 0.0 in
14:47 18.3 °F 9.6 °F 1021.6 in WNW 6.4 mph 22.5 mph 57 % 0.0 in
14:52 18.4 °F 10.0 °F 1021.2 in WSW 4.8 mph 22.5 mph 58 % 0.0 in
14:57 18.6 °F 10.2 °F 1021.2 in West 12.9 mph 19.3 mph 58 % 0.0 in
15:02 18.7 °F 10.0 °F 1020.9 in WSW 16.1 mph 17.7 mph 57 % 0.0 in
15:07 18.8 °F 10.6 °F 1020.9 in SSW 6.4 mph 19.3 mph 59 % 0.0 in
15:12 18.8 °F 10.1 °F 1020.9 in SSW 11.3 mph 20.9 mph 57 % 0.0 in
15:22 18.9 °F 9.4 °F 1020.9 in WNW 4.8 mph 20.9 mph 54 % 0.0 in
15:32 19.2 °F 9.7 °F 1020.9 in WNW 8.0 mph 17.7 mph 54 % 0.0 in
15:37 19.2 °F 9.9 °F 1020.9 in WNW 11.3 mph 20.9 mph 55 % 0.0 in
15:42 19.2 °F 9.9 °F 1020.9 in NW 9.7 mph 20.9 mph 55 % 0.0 in
15:47 19.4 °F 10.9 °F 1020.9 in WSW 14.5 mph 20.9 mph 58 % 0.0 in
15:52 19.5 °F 10.5 °F 1020.9 in West 8.0 mph 20.9 mph 56 % 0.0 in
15:57 19.4 °F 10.1 °F 1020.9 in WSW 11.3 mph 17.7 mph 55 % 0.0 in
16:02 19.5 °F 10.2 °F 1020.9 in WNW 9.7 mph 20.9 mph 55 % 0.0 in
16:12 19.3 °F 10.3 °F 1020.9 in WNW 9.7 mph 25.7 mph 56 % 0.0 in
16:17 19.2 °F 10.5 °F 1020.9 in West 11.3 mph 25.7 mph 57 % 0.0 in
16:27 19.1 °F 11.2 °F 1020.9 in SW 14.5 mph 19.3 mph 60 % 0.0 in
16:32 19.2 °F 10.7 °F 1020.9 in WSW 11.3 mph 20.9 mph 58 % 0.0 in
16:37 19.3 °F 11.1 °F 1020.5 in West 12.9 mph 20.9 mph 59 % 0.0 in
16:42 19.3 °F 10.8 °F 1020.5 in West 6.4 mph 20.9 mph 58 % 0.0 in
16:47 19.1 °F 10.9 °F 1020.9 in WSW 12.9 mph 19.3 mph 59 % 0.0 in
16:52 19.0 °F 11.1 °F 1020.9 in WSW 16.1 mph 19.3 mph 60 % 0.0 in
16:57 18.8 °F 10.9 °F 1020.5 in WSW 6.4 mph 20.9 mph 60 % 0.0 in
17:02 18.7 °F 11.0 °F 1020.5 in West 14.5 mph 20.9 mph 61 % 0.0 in
17:07 18.7 °F 11.0 °F 1020.5 in WSW 11.3 mph 19.3 mph 61 % 0.0 in
17:12 18.7 °F 11.3 °F 1020.5 in WSW 8.0 mph 19.3 mph 62 % 0.0 in
17:17 18.9 °F 11.5 °F 1020.5 in West 11.3 mph 19.3 mph 62 % 0.0 in
17:32 18.8 °F 11.4 °F 1020.5 in West 8.0 mph 22.5 mph 62 % 0.0 in
17:37 18.7 °F 11.3 °F 1020.5 in NW 11.3 mph 22.5 mph 62 % 0.0 in
17:42 18.6 °F 11.4 °F 1020.9 in West 4.8 mph 20.9 mph 63 % 0.0 in
17:47 18.6 °F 11.4 °F 1020.9 in WNW 12.9 mph 20.9 mph 63 % 0.0 in
17:52 18.5 °F 11.3 °F 1020.5 in WSW 12.9 mph 19.3 mph 63 % 0.0 in
17:57 18.4 °F 11.5 °F 1020.5 in WNW 25.7 mph 25.7 mph 64 % 0.0 in
18:02 18.3 °F 11.4 °F 1020.5 in West 9.7 mph 27.4 mph 64 % 0.0 in
18:07 18.2 °F 11.5 °F 1020.5 in West 14.5 mph 27.4 mph 65 % 0.0 in
18:12 18.1 °F 11.6 °F 1020.5 in West 11.3 mph 27.4 mph 66 % 0.0 in
18:17 18.1 °F 11.6 °F 1020.5 in WSW 11.3 mph 24.1 mph 66 % 0.0 in
18:22 17.9 °F 11.7 °F 1020.5 in West 8.0 mph 24.1 mph 67 % 0.0 in
18:32 17.7 °F 11.9 °F 1020.5 in WNW 8.0 mph 19.3 mph 69 % 0.0 in
18:42 17.5 °F 12.2 °F 1020.5 in West 11.3 mph 19.3 mph 71 % 0.0 in
18:47 17.4 °F 12.3 °F 1020.5 in West 9.7 mph 24.1 mph 72 % 0.0 in
18:52 17.4 °F 12.3 °F 1020.5 in WSW 6.4 mph 24.1 mph 72 % 0.0 in
19:02 17.2 °F 12.3 °F 1020.5 in SW 9.7 mph 14.5 mph 73 % 0.0 in
19:07 17.1 °F 12.4 °F 1020.5 in West 6.4 mph 14.5 mph 74 % 0.0 in
19:12 17.1 °F 12.4 °F 1020.9 in WNW 4.8 mph 14.5 mph 74 % 0.0 in
19:17 17.0 °F 12.5 °F 1020.9 in WNW 4.8 mph 14.5 mph 75 % 0.0 in
19:22 16.9 °F 12.6 °F 1020.9 in West 4.8 mph 14.5 mph 76 % 0.0 in
19:27 16.8 °F 12.5 °F 1020.9 in West 14.5 mph 16.1 mph 76 % 0.0 in
19:32 16.7 °F 12.6 °F 1020.9 in WNW 14.5 mph 19.3 mph 77 % 0.0 in
19:37 16.6 °F 12.9 °F 1020.9 in WNW 6.4 mph 22.5 mph 79 % 0.0 in
19:42 16.3 °F 12.8 °F 1021.2 in WSW 4.8 mph 22.5 mph 80 % 0.0 in
19:47 16.1 °F 13.0 °F 1021.2 in West 8.0 mph 24.1 mph 82 % 0.0 in
19:52 15.9 °F 12.8 °F 1021.2 in NW 14.5 mph 24.1 mph 82 % 0.0 in
19:57 15.7 °F 12.8 °F 1021.2 in NW 12.9 mph 29.0 mph 83 % 0.0 in
20:02 15.4 °F 12.9 °F 1021.2 in West 16.1 mph 29.0 mph 85 % 0.0 in
20:07 15.2 °F 12.9 °F 1021.6 in WNW 11.3 mph 25.7 mph 86 % 0.0 in
20:12 14.9 °F 12.8 °F 1021.6 in WNW 8.0 mph 27.4 mph 87 % 0.0 in
20:22 14.7 °F 12.9 °F 1021.6 in West 3.2 mph 22.5 mph 89 % 0.0 in
20:27 14.6 °F 12.6 °F 1021.6 in WSW 12.9 mph 19.3 mph 88 % 0.0 in
20:32 14.6 °F 12.6 °F 1021.6 in WNW 14.5 mph 20.9 mph 88 % 0.0 in
20:37 14.6 °F 12.6 °F 1021.6 in WNW 8.0 mph 20.9 mph 88 % 0.0 in
20:42 14.4 °F 12.6 °F 1021.6 in WNW 6.4 mph 20.9 mph 89 % 0.0 in
20:47 14.3 °F 12.5 °F 1021.6 in WNW 12.9 mph 20.9 mph 89 % 0.0 in
20:52 14.2 °F 12.4 °F 1021.6 in WNW 9.7 mph 17.7 mph 89 % 0.0 in
20:57 14.2 °F 12.4 °F 1021.6 in West 11.3 mph 17.7 mph 89 % 0.0 in
21:12 14.1 °F 12.5 °F 1021.6 in North 14.5 mph 14.5 mph 90 % 0.0 in
21:17 14.1 °F 12.5 °F 1021.6 in NW 11.3 mph 20.9 mph 90 % 0.0 in
21:22 14.0 °F 12.6 °F 1021.6 in NW 12.9 mph 20.9 mph 91 % 0.0 in
21:27 14.0 °F 12.6 °F 1021.6 in WNW 4.8 mph 20.9 mph 91 % 0.0 in
21:32 13.9 °F 12.6 °F 1021.6 in WNW 4.8 mph 19.3 mph 92 % 0.0 in
21:42 13.8 °F 12.5 °F 1021.6 in WSW 8.0 mph 14.5 mph 92 % 0.0 in
21:47 13.8 °F 12.5 °F 1021.6 in Calm   14.5 mph 92 % 0.0 in
21:52 13.8 °F 12.5 °F 1021.6 in WNW 3.2 mph 14.5 mph 92 % 0.0 in
21:57 13.8 °F 12.5 °F 1021.6 in NNW 6.4 mph 14.5 mph 92 % 0.0 in
22:02 13.7 °F 12.6 °F 1021.6 in NNW 8.0 mph 17.7 mph 93 % 0.0 in
22:12 13.7 °F 12.6 °F 1021.6 in NNW 3.2 mph 19.3 mph 93 % 0.0 in
22:17 13.7 °F 12.6 °F 1021.9 in WSW 9.7 mph 19.3 mph 93 % 0.0 in
22:22 13.6 °F 12.5 °F 1021.9 in WNW 6.4 mph 16.1 mph 93 % 0.0 in
22:27 13.6 °F 12.5 °F 1021.9 in NNW 8.0 mph 17.7 mph 93 % 0.0 in
22:32 13.6 °F 12.7 °F 1021.9 in West 4.8 mph 17.7 mph 94 % 0.0 in
22:37 13.6 °F 12.7 °F 1021.9 in West 9.7 mph 17.7 mph 94 % 0.0 in
22:42 13.6 °F 12.7 °F 1021.9 in WNW 14.5 mph 16.1 mph 94 % 0.0 in
22:47 13.6 °F 12.7 °F 1021.9 in NW 8.0 mph 16.1 mph 94 % 0.0 in
22:52 13.6 °F 12.7 °F 1021.9 in WSW 3.2 mph 16.1 mph 94 % 0.0 in
22:57 13.6 °F 12.7 °F 1021.9 in NW 3.2 mph 16.1 mph 94 % 0.0 in
23:02 13.6 °F 12.7 °F 1022.2 in WNW 8.0 mph 12.9 mph 94 % 0.0 in
23:07 13.6 °F 12.7 °F 1021.9 in West 4.8 mph 12.9 mph 94 % 0.0 in
23:12 13.5 °F 12.6 °F 1022.2 in WNW 6.4 mph 14.5 mph 94 % 0.0 in
23:17 13.6 °F 12.7 °F 1022.2 in WSW 8.0 mph 14.5 mph 94 % 0.0 in
23:22 13.5 °F 12.6 °F 1022.2 in NW 12.9 mph 14.5 mph 94 % 0.0 in
23:27 13.5 °F 12.6 °F 1022.2 in WNW 4.8 mph 14.5 mph 94 % 0.0 in
23:37 13.5 °F 12.6 °F 1022.2 in NW 4.8 mph 12.9 mph 94 % 0.0 in
23:42 13.5 °F 12.6 °F 1022.2 in SW 1.6 mph 11.3 mph 94 % 0.0 in
23:47 13.6 °F 12.7 °F 1022.2 in WNW 8.0 mph 16.1 mph 94 % 0.0 in
23:52 13.5 °F 12.6 °F 1022.2 in NW 4.8 mph 16.1 mph 94 % 0.0 in
23:57 13.5 °F 12.6 °F 1022.2 in NW 4.8 mph 16.1 mph 94 % 0.0 in
Meteo18
Compliments of Weather Underground - 4 mb

Script developed by  Jim McMurry - jmcmurry@mwt.net Adapted for the template by  Wim van der Kuil - Leuven-Template.eu

You find our weather info also at:

European Weather Network

Weather Underground

Equipment we use:

Weather-station
Davis Vue

Weather-program
Meteobridge

Weather-server
Raspberry PI 2 B+

Provider
1 and 1

Davis Vue

Meteobridge

Raspberry PI 2 B+

1 and 1